Time;durP1;ratioP1;P1;durP2;ratioP2;P2;SDS_P1;SDS_P2;PMS_P1;PMS_P2;Temp;Humidity;BMP_temperature;BMP_pressure;BME280_temperature;BME280_humidity;BME280_pressure;Samples;Min_cycle;Max_cycle;Signal;HPM_P1;HPM_P2
2022/03/02 00:01:41;;;;;;;17.35;8.70;;;0.00;77.70;;;;;;5022637;28;20092;-72
2022/03/02 00:04:07;;;;;;;22.60;9.25;;;0.00;77.60;;;;;;5022631;28;20040;-73
2022/03/02 00:06:33;;;;;;;18.08;9.48;;;0.00;76.90;;;;;;5021787;28;20477;-73
2022/03/02 00:08:59;;;;;;;22.60;9.13;;;0.10;76.80;;;;;;5022309;28;20044;-72
2022/03/02 00:11:27;;;;;;;18.13;8.25;;;0.00;76.30;;;;;;5022346;28;20042;-72
2022/03/02 00:13:54;;;;;;;14.75;8.32;;;0.10;76.10;;;;;;5022234;28;20079;-72
2022/03/02 00:16:19;;;;;;;24.55;9.82;;;0.10;75.30;;;;;;5022381;28;20033;-72
2022/03/02 00:18:45;;;;;;;22.27;9.82;;;0.00;75.00;;;;;;5022458;28;20073;-72
2022/03/02 00:21:11;;;;;;;25.90;10.85;;;0.00;75.60;;;;;;5022080;28;20038;-72
2022/03/02 00:23:37;;;;;;;31.88;13.50;;;0.00;75.60;;;;;;5022323;28;20061;-72
2022/03/02 00:26:03;;;;;;;33.63;14.15;;;0.00;75.90;;;;;;5022169;28;20791;-72
2022/03/02 00:28:28;;;;;;;35.33;12.65;;;-0.10;76.20;;;;;;5021899;28;20563;-72
2022/03/02 00:30:55;;;;;;;34.33;12.63;;;-0.20;76.20;;;;;;5020414;28;20029;-73
2022/03/02 00:33:21;;;;;;;27.25;12.25;;;-0.20;76.50;;;;;;5022619;28;20064;-73
2022/03/02 00:35:47;;;;;;;27.48;11.30;;;-0.20;77.30;;;;;;5021479;28;20045;-73
2022/03/02 00:38:13;;;;;;;27.70;11.40;;;-0.20;77.20;;;;;;5021236;28;20041;-72
2022/03/02 00:40:40;;;;;;;28.98;12.15;;;-0.20;76.70;;;;;;5020034;28;20037;-73
2022/03/02 00:43:06;;;;;;;31.95;12.00;;;-0.20;76.40;;;;;;5021514;28;20041;-72
2022/03/02 00:45:32;;;;;;;26.50;12.02;;;-0.20;76.30;;;;;;5021345;28;20404;-72
2022/03/02 00:47:59;;;;;;;20.48;10.35;;;-0.20;76.20;;;;;;5021517;28;20033;-72
2022/03/02 00:50:25;;;;;;;26.90;10.43;;;-0.20;76.40;;;;;;5021287;28;20053;-73
2022/03/02 00:52:51;;;;;;;23.50;10.07;;;-0.20;76.40;;;;;;5020903;28;20124;-72
2022/03/02 00:55:17;;;;;;;24.10;10.27;;;-0.20;76.50;;;;;;5021136;28;20037;-72
2022/03/02 00:57:43;;;;;;;26.17;10.93;;;-0.20;76.40;;;;;;5020228;28;20032;-72
2022/03/02 01:00:09;;;;;;;23.80;11.43;;;-0.20;76.50;;;;;;5020572;28;20033;-73
2022/03/02 01:02:35;;;;;;;19.95;9.18;;;-0.20;76.80;;;;;;5022021;28;20215;-72
2022/03/02 01:05:01;;;;;;;22.23;9.93;;;-0.20;76.80;;;;;;5022000;28;20144;-73
2022/03/02 01:07:26;;;;;;;25.63;11.57;;;-0.10;76.60;;;;;;5021703;28;20178;-73
2022/03/02 01:09:52;;;;;;;27.23;11.43;;;-0.10;76.80;;;;;;5020465;28;20382;-72
2022/03/02 01:12:18;;;;;;;25.08;11.07;;;-0.10;76.60;;;;;;5022128;28;20091;-72
2022/03/02 01:14:44;;;;;;;19.42;10.20;;;-0.10;77.00;;;;;;5021566;28;20037;-72
2022/03/02 01:17:09;;;;;;;21.63;9.82;;;-0.10;77.50;;;;;;5021532;28;20033;-73
2022/03/02 01:19:36;;;;;;;23.45;10.52;;;-0.20;78.20;;;;;;5021960;28;20079;-72
2022/03/02 01:22:02;;;;;;;17.52;9.27;;;-0.10;77.80;;;;;;5021483;28;20508;-73
2022/03/02 01:24:28;;;;;;;23.63;11.60;;;-0.10;77.40;;;;;;5021890;28;20037;-73
2022/03/02 01:26:54;;;;;;;23.35;10.23;;;0.00;76.70;;;;;;5021224;28;20424;-72
2022/03/02 01:29:19;;;;;;;25.85;9.95;;;0.00;76.80;;;;;;5021220;28;20043;-72
2022/03/02 01:31:45;;;;;;;19.80;10.05;;;0.00;76.40;;;;;;5021412;28;20037;-73
2022/03/02 01:34:11;;;;;;;23.45;10.75;;;0.00;76.30;;;;;;5021271;28;20030;-73
2022/03/02 01:36:37;;;;;;;24.50;11.10;;;0.10;76.50;;;;;;5021086;28;20104;-73
2022/03/02 01:39:03;;;;;;;21.02;10.52;;;0.00;76.90;;;;;;5021403;28;20144;-73
2022/03/02 01:41:29;;;;;;;24.33;11.50;;;0.00;77.00;;;;;;5017369;28;20025;-74
2022/03/02 01:43:55;;;;;;;22.05;10.73;;;0.00;77.20;;;;;;5021126;28;20048;-73
2022/03/02 01:46:22;;;;;;;25.98;10.98;;;0.10;77.50;;;;;;5020926;28;20041;-73
2022/03/02 01:48:48;;;;;;;18.73;10.50;;;0.10;77.10;;;;;;5019500;28;20045;-73
2022/03/02 01:51:14;;;;;;;21.48;11.15;;;0.20;76.70;;;;;;5021125;28;20128;-73
2022/03/02 01:53:41;;;;;;;21.77;9.55;;;0.20;76.60;;;;;;5020783;28;20099;-73
2022/03/02 01:56:07;;;;;;;16.83;9.52;;;0.30;76.80;;;;;;5020671;28;20106;-72
2022/03/02 01:58:33;;;;;;;20.20;9.57;;;0.30;76.60;;;;;;5021155;28;20051;-72
2022/03/02 02:01:00;;;;;;;18.85;8.82;;;0.30;76.50;;;;;;5021037;28;20836;-72
2022/03/02 02:03:27;;;;;;;20.92;9.38;;;0.30;76.30;;;;;;5020744;28;20143;-72
2022/03/02 02:05:53;;;;;;;17.52;8.68;;;0.30;76.00;;;;;;5020666;28;20390;-72
2022/03/02 02:08:19;;;;;;;17.40;9.00;;;0.40;76.20;;;;;;5021201;28;20034;-72
2022/03/02 02:10:45;;;;;;;19.70;9.30;;;0.50;75.90;;;;;;5020712;28;20107;-73
2022/03/02 02:13:10;;;;;;;19.75;9.50;;;0.50;75.30;;;;;;5021184;28;20029;-73
2022/03/02 02:15:36;;;;;;;17.13;8.70;;;0.60;75.30;;;;;;5020950;28;20182;-72
2022/03/02 02:18:03;;;;;;;21.92;9.80;;;0.70;74.50;;;;;;5020518;28;20040;-73
2022/03/02 02:20:33;;;;;;;19.33;9.30;;;0.70;74.10;;;;;;5019428;28;20034;-72
2022/03/02 02:22:59;;;;;;;25.33;11.55;;;0.80;74.80;;;;;;5020851;28;20034;-72
2022/03/02 02:25:24;;;;;;;24.98;11.63;;;0.70;75.60;;;;;;5020323;28;20038;-73
2022/03/02 02:27:50;;;;;;;26.73;11.02;;;0.70;76.70;;;;;;5017691;28;20114;-72
2022/03/02 02:30:17;;;;;;;23.40;9.20;;;0.70;77.00;;;;;;5020355;28;20048;-72
2022/03/02 02:32:43;;;;;;;23.08;9.50;;;0.70;77.40;;;;;;5020062;28;20033;-72
2022/03/02 02:35:10;;;;;;;21.83;8.98;;;0.70;77.50;;;;;;5014141;28;20034;-72
2022/03/02 02:37:37;;;;;;;32.55;13.07;;;0.70;76.90;;;;;;5020282;28;20037;-72
2022/03/02 02:40:07;;;;;;;39.80;14.52;;;0.60;76.10;;;;;;5020997;28;20026;-71
2022/03/02 02:42:34;;;;;;;36.33;15.48;;;0.60;76.10;;;;;;5017924;28;20042;-72
2022/03/02 02:44:59;;;;;;;33.28;13.13;;;0.50;76.70;;;;;;5020758;28;20128;-74
2022/03/02 02:47:25;;;;;;;30.08;12.65;;;0.40;77.10;;;;;;5020478;28;20120;-72
2022/03/02 02:49:51;;;;;;;35.13;12.30;;;0.40;76.90;;;;;;5020744;28;20057;-72
2022/03/02 02:52:17;;;;;;;30.50;12.38;;;0.40;77.20;;;;;;5020984;28;20029;-69
2022/03/02 02:54:43;;;;;;;42.90;15.48;;;0.30;77.40;;;;;;5020846;28;20468;-71
2022/03/02 02:57:09;;;;;;;38.20;14.10;;;0.30;77.60;;;;;;5017877;28;20028;-71
2022/03/02 02:59:35;;;;;;;38.38;15.38;;;0.40;77.70;;;;;;5020652;28;20033;-71
2022/03/02 03:02:00;;;;;;;32.88;14.50;;;0.40;77.50;;;;;;5019155;28;20037;-71
2022/03/02 03:04:26;;;;;;;31.63;13.18;;;0.40;77.70;;;;;;5020418;28;20045;-71
2022/03/02 03:06:52;;;;;;;31.40;13.82;;;0.40;77.90;;;;;;5021247;28;20044;-71
2022/03/02 03:09:18;;;;;;;33.65;13.38;;;0.50;78.30;;;;;;5023688;28;20675;-72
2022/03/02 03:11:44;;;;;;;33.85;11.90;;;0.50;78.20;;;;;;5022407;28;20033;-71
2022/03/02 03:14:12;;;;;;;33.53;13.80;;;0.50;78.00;;;;;;5023725;28;20034;-71
2022/03/02 03:16:39;;;;;;;32.60;13.30;;;0.60;77.80;;;;;;5021575;28;20034;-71
2022/03/02 03:19:06;;;;;;;42.55;15.82;;;0.60;77.70;;;;;;5023163;28;20104;-71
2022/03/02 03:21:31;;;;;;;37.47;15.43;;;0.60;77.40;;;;;;5023351;28;20666;-71
2022/03/02 03:23:57;;;;;;;37.47;15.05;;;0.60;77.40;;;;;;5022632;28;20110;-71
2022/03/02 03:26:23;;;;;;;42.50;16.10;;;0.60;77.20;;;;;;5021776;28;20033;-71
2022/03/02 03:28:49;;;;;;;37.35;15.45;;;0.60;76.70;;;;;;5020839;28;20608;-71
2022/03/02 03:31:15;;;;;;;45.97;16.45;;;0.50;77.00;;;;;;5022673;28;20048;-71
2022/03/02 03:33:41;;;;;;;35.25;13.85;;;0.40;77.20;;;;;;5023582;28;20056;-71
2022/03/02 03:36:07;;;;;;;36.17;14.77;;;0.30;77.80;;;;;;5023011;28;20095;-71
2022/03/02 03:38:33;;;;;;;26.33;10.45;;;0.20;78.30;;;;;;5018620;28;20046;-71
2022/03/02 03:40:59;;;;;;;26.25;11.82;;;0.20;78.60;;;;;;5022805;28;20037;-71
2022/03/02 03:43:25;;;;;;;24.73;10.73;;;0.10;78.40;;;;;;5023353;28;20833;-71
2022/03/02 03:45:51;;;;;;;23.33;11.43;;;0.00;78.40;;;;;;5023325;28;20022;-71
2022/03/02 03:48:18;;;;;;;22.83;10.80;;;0.00;78.70;;;;;;5023383;28;20159;-71
2022/03/02 03:50:44;;;;;;;24.63;10.73;;;-0.20;78.60;;;;;;5023397;28;20121;-71
2022/03/02 03:53:11;;;;;;;21.73;9.98;;;-0.20;79.20;;;;;;5023183;28;20045;-71
2022/03/02 03:55:38;;;;;;;20.83;9.82;;;-0.20;79.40;;;;;;5022655;28;20148;-71
2022/03/02 03:58:05;;;;;;;21.63;10.20;;;-0.30;79.80;;;;;;5023132;28;20026;-71
2022/03/02 04:00:31;;;;;;;22.33;9.65;;;-0.30;79.90;;;;;;5023508;28;20035;-71
2022/03/02 04:02:57;;;;;;;18.83;8.63;;;-0.30;80.10;;;;;;5017901;28;20037;-71
2022/03/02 04:05:23;;;;;;;25.15;9.57;;;-0.30;80.60;;;;;;5022916;28;20393;-71
2022/03/02 04:07:48;;;;;;;24.25;9.70;;;-0.30;80.40;;;;;;5023534;28;20037;-71
2022/03/02 04:10:15;;;;;;;22.25;10.00;;;-0.30;80.90;;;;;;5023044;28;20107;-71
2022/03/02 04:12:42;;;;;;;21.85;9.48;;;-0.30;81.30;;;;;;5023243;28;20833;-71
2022/03/02 04:15:08;;;;;;;22.58;10.82;;;-0.30;81.10;;;;;;5022859;28;20029;-71
2022/03/02 04:17:34;;;;;;;25.13;11.38;;;-0.40;81.10;;;;;;5022446;28;20612;-71
2022/03/02 04:20:00;;;;;;;22.92;10.05;;;-0.40;81.40;;;;;;5022777;28;20094;-72
2022/03/02 04:22:26;;;;;;;19.05;11.07;;;-0.40;81.50;;;;;;5023009;28;20040;-71
2022/03/02 04:24:51;;;;;;;31.48;13.07;;;-0.50;82.00;;;;;;5022786;28;20516;-72
2022/03/02 04:27:17;;;;;;;32.83;15.02;;;-0.60;82.80;;;;;;5022709;28;20464;-71
2022/03/02 04:29:44;;;;;;;34.58;14.45;;;-0.60;83.10;;;;;;5019608;28;20037;-71
2022/03/02 04:32:09;;;;;;;30.90;13.32;;;-0.60;82.20;;;;;;5019722;28;20037;-71
2022/03/02 04:34:35;;;;;;;31.25;13.25;;;-0.60;82.60;;;;;;5022784;28;20029;-71
2022/03/02 04:37:01;;;;;;;24.90;12.15;;;-0.60;83.10;;;;;;5020860;28;20049;-71
2022/03/02 04:39:26;;;;;;;26.77;12.45;;;-0.60;83.50;;;;;;5022922;28;20488;-71
2022/03/02 04:41:52;;;;;;;28.00;12.02;;;-0.60;84.00;;;;;;5022536;28;20144;-72
2022/03/02 04:44:18;;;;;;;22.20;10.93;;;-0.50;84.50;;;;;;5022265;28;20095;-71
2022/03/02 04:46:48;;;;;;;23.30;10.50;;;-0.50;84.50;;;;;;5021614;28;20067;-71
2022/03/02 04:49:18;;;;;;;22.60;11.57;;;-0.40;83.90;;;;;;5023078;28;20122;-71
2022/03/02 04:51:47;;;;;;;28.08;13.68;;;-0.40;83.30;;;;;;5019031;28;20446;-71
2022/03/02 04:55:05;;;;;;;26.65;12.82;;;-0.40;82.80;;;;;;5022403;28;20044;-71
2022/03/02 04:57:01;;;;;;;27.05;11.82;;;-0.40;82.60;;;;;;5015893;28;20841;-72
2022/03/02 04:59:26;;;;;;;26.08;12.68;;;-0.30;82.80;;;;;;5022029;28;20513;-71
2022/03/02 05:01:52;;;;;;;26.13;10.98;;;-0.30;83.10;;;;;;5020966;28;20037;-71
2022/03/02 05:04:18;;;;;;;22.25;10.25;;;-0.30;83.50;;;;;;5019016;28;20039;-71
2022/03/02 05:06:44;;;;;;;21.80;10.38;;;-0.30;82.80;;;;;;5020943;28;20025;-71
2022/03/02 05:09:09;;;;;;;23.35;10.95;;;-0.20;83.00;;;;;;5019175;28;20026;-71
2022/03/02 05:11:35;;;;;;;19.58;10.00;;;-0.20;83.20;;;;;;5021133;28;20580;-71
2022/03/02 05:14:01;;;;;;;23.90;10.32;;;-0.20;83.10;;;;;;5020832;28;20687;-71
2022/03/02 05:16:26;;;;;;;22.88;10.00;;;-0.10;83.10;;;;;;5020672;28;20037;-71
2022/03/02 05:18:52;;;;;;;21.63;10.25;;;-0.10;82.80;;;;;;5015952;28;20448;-71
2022/03/02 05:21:18;;;;;;;23.88;10.32;;;-0.10;82.90;;;;;;5021525;28;20040;-71
2022/03/02 05:23:43;;;;;;;23.13;10.10;;;0.00;82.90;;;;;;5017659;28;20470;-71
2022/03/02 05:26:09;;;;;;;19.13;9.60;;;0.00;82.40;;;;;;5018021;28;20133;-70
2022/03/02 05:28:36;;;;;;;21.38;9.57;;;0.00;82.30;;;;;;5020964;28;20861;-70
2022/03/02 05:31:02;;;;;;;20.13;9.38;;;0.00;82.70;;;;;;5015954;28;20033;-71
2022/03/02 05:33:28;;;;;;;19.70;9.07;;;0.00;83.00;;;;;;5020881;28;20116;-71
2022/03/02 05:35:54;;;;;;;22.92;10.10;;;0.00;83.00;;;;;;5020524;28;20828;-71
2022/03/02 05:38:19;;;;;;;20.80;9.98;;;0.00;82.90;;;;;;5018039;28;20085;-71
2022/03/02 05:40:45;;;;;;;18.60;9.00;;;0.00;83.00;;;;;;5020410;28;20978;-71
2022/03/02 05:43:11;;;;;;;20.42;9.88;;;0.00;82.90;;;;;;5019312;28;20075;-71
2022/03/02 05:45:36;;;;;;;22.23;9.90;;;0.00;82.80;;;;;;5019643;28;20486;-72
2022/03/02 05:48:02;;;;;;;20.00;10.30;;;0.00;82.80;;;;;;5020844;28;20087;-71
2022/03/02 05:50:28;;;;;;;22.35;9.85;;;0.00;83.00;;;;;;5018307;28;20041;-71
2022/03/02 05:52:54;;;;;;;22.50;10.63;;;0.00;83.20;;;;;;5017573;28;20666;-71
2022/03/02 05:55:20;;;;;;;23.58;10.48;;;0.00;83.00;;;;;;5020556;28;20208;-71
2022/03/02 05:57:45;;;;;;;22.85;10.60;;;0.00;83.10;;;;;;5017114;28;20815;-71
2022/03/02 06:00:13;;;;;;;22.58;11.23;;;0.00;83.00;;;;;;5018210;28;20857;-71
2022/03/02 06:02:40;;;;;;;21.23;9.80;;;-0.10;83.20;;;;;;5020979;28;20025;-70
2022/03/02 06:05:09;;;;;;;22.25;10.15;;;-0.10;83.60;;;;;;5020136;28;20029;-71
2022/03/02 06:07:35;;;;;;;25.17;10.80;;;-0.10;83.80;;;;;;5020476;28;20041;-71
2022/03/02 06:10:01;;;;;;;25.52;10.93;;;-0.10;83.80;;;;;;5015678;28;20158;-71
2022/03/02 06:12:27;;;;;;;20.65;10.63;;;0.00;83.60;;;;;;5020286;28;20045;-71
2022/03/02 06:14:53;;;;;;;20.77;10.13;;;0.00;83.40;;;;;;5018600;28;20021;-71
2022/03/02 06:17:19;;;;;;;24.05;11.00;;;0.00;83.20;;;;;;5020528;28;20064;-71
2022/03/02 06:19:45;;;;;;;27.40;11.30;;;0.00;83.20;;;;;;5020563;28;20087;-71
2022/03/02 06:22:11;;;;;;;21.75;10.40;;;0.10;83.20;;;;;;5021003;28;20037;-71
2022/03/02 06:24:37;;;;;;;24.45;11.20;;;0.20;83.10;;;;;;5020720;28;20545;-71
2022/03/02 06:27:03;;;;;;;22.55;11.27;;;0.20;82.70;;;;;;5017922;28;20032;-71
2022/03/02 06:29:29;;;;;;;20.52;9.88;;;0.30;82.50;;;;;;5017219;28;20159;-71
2022/03/02 06:31:55;;;;;;;28.42;12.00;;;0.40;82.20;;;;;;5010550;28;20033;-71
2022/03/02 06:34:21;;;;;;;21.05;11.02;;;0.40;82.10;;;;;;5020836;28;20084;-71
2022/03/02 06:36:50;;;;;;;26.15;10.95;;;0.40;81.70;;;;;;5018808;28;20037;-71
2022/03/02 06:39:20;;;;;;;24.60;10.98;;;0.50;81.70;;;;;;5020211;28;20096;-71
2022/03/02 06:42:05;;;;;;;26.73;11.50;;;0.50;81.30;;;;;;5019569;28;20052;-71
2022/03/02 06:45:02;;;;;;;26.05;10.75;;;0.60;81.00;;;;;;5020800;28;20041;-70
2022/03/02 06:47:58;;;;;;;24.67;10.25;;;0.70;81.10;;;;;;5021679;28;20048;-71
2022/03/02 06:50:25;;;;;;;22.17;10.07;;;0.70;80.80;;;;;;5023871;28;20037;-71
2022/03/02 06:52:54;;;;;;;23.85;10.55;;;0.80;80.60;;;;;;5024594;28;20332;-72
2022/03/02 06:55:21;;;;;;;21.60;11.00;;;0.90;80.40;;;;;;5024277;28;20040;-71
2022/03/02 06:57:59;;;;;;;25.05;10.80;;;0.90;79.90;;;;;;5022844;28;20052;-71
2022/03/02 07:00:25;;;;;;;23.30;10.38;;;1.00;79.70;;;;;;5021156;28;20029;-71
2022/03/02 07:02:52;;;;;;;22.38;10.48;;;1.10;79.50;;;;;;5022727;28;20042;-71
2022/03/02 07:05:20;;;;;;;25.52;11.20;;;1.10;79.90;;;;;;5024070;28;20083;-71
2022/03/02 07:07:47;;;;;;;23.08;11.70;;;1.30;79.40;;;;;;5021948;28;20044;-71
2022/03/02 07:10:13;;;;;;;22.65;11.65;;;1.40;79.20;;;;;;5024186;28;20034;-71
2022/03/02 07:12:39;;;;;;;28.88;11.52;;;1.50;78.70;;;;;;5023996;28;20671;-71
2022/03/02 07:15:06;;;;;;;23.90;11.35;;;1.60;78.20;;;;;;5020984;28;20794;-71
2022/03/02 07:17:33;;;;;;;27.10;11.82;;;1.70;77.40;;;;;;5024183;28;20029;-71
2022/03/02 07:20:00;;;;;;;24.58;11.43;;;1.70;76.60;;;;;;5023375;28;20034;-71
2022/03/02 07:22:31;;;;;;;21.83;10.50;;;1.90;76.00;;;;;;5023827;28;20037;-71
2022/03/02 07:25:19;;;;;;;21.25;10.73;;;1.90;75.50;;;;;;5024145;28;20040;-71
2022/03/02 07:27:45;;;;;;;29.52;12.07;;;2.00;75.00;;;;;;5019238;28;20045;-71
2022/03/02 07:30:12;;;;;;;24.63;10.60;;;2.10;74.70;;;;;;5024446;28;20040;-72
2022/03/02 07:32:41;;;;;;;22.48;11.18;;;2.30;74.20;;;;;;5025183;28;20041;-71
2022/03/02 07:35:07;;;;;;;24.67;11.25;;;2.40;73.70;;;;;;5019520;28;20033;-71
2022/03/02 07:37:34;;;;;;;25.38;11.98;;;2.60;73.20;;;;;;5020771;28;20076;-71
2022/03/02 07:40:01;;;;;;;23.67;11.68;;;2.70;72.70;;;;;;5023578;28;20091;-71
2022/03/02 07:42:27;;;;;;;23.75;11.43;;;2.90;72.00;;;;;;5023483;28;20036;-71
2022/03/02 07:44:54;;;;;;;24.70;11.88;;;3.00;71.40;;;;;;5023387;28;20038;-71
2022/03/02 07:47:20;;;;;;;19.60;9.88;;;3.20;70.80;;;;;;5024917;28;20037;-71
2022/03/02 07:49:46;;;;;;;27.95;11.68;;;3.30;70.20;;;;;;5023192;28;20303;-71
2022/03/02 07:52:14;;;;;;;22.90;10.82;;;3.50;69.10;;;;;;5021559;28;20037;-72
2022/03/02 07:54:42;;;;;;;32.10;11.95;;;3.60;68.80;;;;;;5023197;28;20032;-72
2022/03/02 07:57:12;;;;;;;27.30;11.20;;;3.90;68.60;;;;;;5022398;28;20091;-71
2022/03/02 07:59:42;;;;;;;25.77;11.25;;;4.20;67.30;;;;;;5022812;28;20037;-71
2022/03/02 08:02:11;;;;;;;25.48;12.05;;;4.60;66.80;;;;;;5023313;28;20037;-71
2022/03/02 08:04:37;;;;;;;31.73;13.88;;;4.90;65.30;;;;;;5023142;28;20134;-72
2022/03/02 08:07:04;;;;;;;32.90;13.75;;;5.10;64.50;;;;;;5022275;28;21216;-71
2022/03/02 08:09:34;;;;;;;26.85;13.50;;;5.40;64.00;;;;;;5023220;28;20069;-71
2022/03/02 08:12:01;;;;;;;30.20;13.68;;;5.50;63.00;;;;;;5018401;28;20041;-73
2022/03/02 08:14:31;;;;;;;29.98;14.75;;;5.70;62.20;;;;;;5021294;28;20068;-72
2022/03/02 08:16:57;;;;;;;31.65;16.05;;;5.90;61.60;;;;;;5022521;28;20061;-72
2022/03/02 08:19:23;;;;;;;31.60;14.13;;;6.00;61.50;;;;;;5022501;28;20068;-72
2022/03/02 08:22:12;;;;;;;32.78;14.18;;;6.00;61.20;;;;;;5013023;28;20106;-71
2022/03/02 08:24:43;;;;;;;31.63;15.13;;;6.10;61.40;;;;;;5020097;28;20120;-70
2022/03/02 08:27:13;;;;;;;33.35;14.95;;;6.20;60.80;;;;;;5021208;28;20405;-73
2022/03/02 08:29:39;;;;;;;22.00;12.70;;;6.40;60.20;;;;;;5020164;28;20045;-73
2022/03/02 08:32:07;;;;;;;28.40;12.00;;;6.60;59.60;;;;;;5014760;28;20025;-71
2022/03/02 08:34:33;;;;;;;28.13;13.45;;;6.80;59.40;;;;;;5018575;28;20037;-74
2022/03/02 08:37:01;;;;;;;27.38;14.40;;;6.90;58.40;;;;;;5019249;28;20037;-74
2022/03/02 08:39:27;;;;;;;29.33;14.35;;;7.10;58.70;;;;;;5019729;28;20121;-72
2022/03/02 08:41:54;;;;;;;23.92;12.05;;;7.20;58.50;;;;;;5019648;28;20087;-73
2022/03/02 08:44:21;;;;;;;23.70;11.82;;;7.30;57.50;;;;;;5022105;28;20064;-72
2022/03/02 08:46:48;;;;;;;24.95;12.23;;;7.30;56.70;;;;;;5020179;28;20029;-72
2022/03/02 08:49:19;;;;;;;25.83;11.35;;;7.40;56.90;;;;;;5022663;28;20033;-72
2022/03/02 08:51:48;;;;;;;27.17;11.30;;;7.40;56.50;;;;;;5020897;28;20040;-75
2022/03/02 08:54:18;;;;;;;24.23;11.45;;;7.70;56.50;;;;;;5021823;28;20053;-73
2022/03/02 08:56:45;;;;;;;25.98;11.88;;;8.20;54.60;;;;;;5019845;28;20478;-77
2022/03/02 08:59:14;;;;;;;22.38;11.30;;;8.70;52.80;;;;;;5019646;28;20049;-72
2022/03/02 09:01:43;;;;;;;26.38;12.02;;;9.30;51.50;;;;;;5023665;28;20691;-72
2022/03/02 09:04:14;;;;;;;24.48;11.75;;;9.70;50.90;;;;;;5022045;28;20037;-73
2022/03/02 09:06:40;;;;;;;26.33;12.35;;;10.00;49.50;;;;;;5019422;28;20049;-72
2022/03/02 09:09:06;;;;;;;19.35;10.82;;;10.00;48.80;;;;;;5019083;28;20095;-71
2022/03/02 09:11:33;;;;;;;24.30;11.98;;;10.20;48.60;;;;;;5022429;28;20033;-72
2022/03/02 09:14:01;;;;;;;25.90;11.63;;;11.80;45.70;;;;;;5017495;28;20033;-72
2022/03/02 09:16:27;;;;;;;22.45;11.80;;;13.90;41.50;;;;;;5018858;28;20789;-72
2022/03/02 09:18:53;;;;;;;26.42;11.85;;;15.50;38.10;;;;;;5019537;28;20087;-73
2022/03/02 09:21:20;;;;;;;26.80;11.52;;;16.00;36.70;;;;;;5020876;28;20032;-73
2022/03/02 09:23:47;;;;;;;19.98;11.43;;;16.50;36.50;;;;;;5021289;28;20083;-73
2022/03/02 09:26:15;;;;;;;22.88;11.30;;;17.00;34.70;;;;;;5018218;28;20037;-73
2022/03/02 09:28:44;;;;;;;24.15;12.50;;;17.50;33.70;;;;;;5020512;28;20041;-72
2022/03/02 09:31:11;;;;;;;21.73;11.18;;;17.60;33.80;;;;;;5022387;28;20037;-71
2022/03/02 09:33:38;;;;;;;22.83;12.52;;;17.20;33.60;;;;;;5020942;28;20837;-72
2022/03/02 09:36:08;;;;;;;23.63;11.65;;;16.00;35.30;;;;;;5013750;28;20112;-72
2022/03/02 09:38:34;;;;;;;25.02;11.52;;;14.70;37.20;;;;;;5016818;28;20033;-72
2022/03/02 09:41:08;;;;;;;20.50;12.02;;;13.70;38.50;;;;;;5020098;28;20056;-72
2022/03/02 09:43:35;;;;;;;22.88;12.38;;;13.10;40.70;;;;;;5020314;28;20037;-73
2022/03/02 09:46:06;;;;;;;20.55;10.68;;;12.70;40.10;;;;;;5022360;28;20025;-72
2022/03/02 09:48:35;;;;;;;22.17;11.35;;;12.80;41.50;;;;;;5012895;28;20071;-72
2022/03/02 09:51:04;;;;;;;24.30;11.32;;;13.70;39.90;;;;;;5020444;28;20560;-73
2022/03/02 09:53:32;;;;;;;25.58;11.48;;;14.50;38.50;;;;;;5020512;28;20762;-72
2022/03/02 09:56:03;;;;;;;21.67;11.15;;;15.20;36.00;;;;;;5019921;28;20037;-72
2022/03/02 09:58:29;;;;;;;19.85;11.02;;;16.10;35.30;;;;;;5019645;28;20033;-72
2022/03/02 10:00:57;;;;;;;21.70;11.32;;;16.30;34.90;;;;;;5017953;28;20025;-72
2022/03/02 10:03:31;;;;;;;20.33;11.63;;;15.80;34.60;;;;;;5016868;28;20033;-73
2022/03/02 10:06:03;;;;;;;20.58;11.57;;;15.40;36.20;;;;;;5019418;28;20136;-72
2022/03/02 10:08:33;;;;;;;22.10;11.70;;;15.00;36.10;;;;;;5020457;28;20025;-73
2022/03/02 10:11:04;;;;;;;24.08;12.00;;;14.70;37.10;;;;;;5020092;28;20503;-72
2022/03/02 10:13:31;;;;;;;32.22;14.43;;;14.60;38.20;;;;;;5018835;28;20041;-72
2022/03/02 10:15:57;;;;;;;28.15;13.50;;;14.60;37.80;;;;;;5021501;28;20032;-72
2022/03/02 10:18:28;;;;;;;21.10;11.23;;;14.50;37.70;;;;;;5021136;28;20033;-73
2022/03/02 10:21:00;;;;;;;22.60;11.40;;;14.50;36.90;;;;;;5024430;28;20037;-75
2022/03/02 10:23:54;;;;;;;21.20;12.32;;;14.30;37.90;;;;;;5020592;28;20417;-74
2022/03/02 10:26:25;;;;;;;21.77;12.32;;;14.30;38.50;;;;;;5023366;28;20057;-76
2022/03/02 10:29:21;;;;;;;23.10;12.48;;;14.60;38.90;;;;;;5023866;28;20049;-75
2022/03/02 10:31:59;;;;;;;21.05;11.38;;;15.10;37.30;;;;;;5025192;28;20067;-75
2022/03/02 10:34:25;;;;;;;19.40;10.15;;;15.40;35.00;;;;;;5020523;28;20037;-75
2022/03/02 10:37:13;;;;;;;20.98;10.93;;;15.50;33.90;;;;;;5023542;28;20176;-74
2022/03/02 10:39:44;;;;;;;23.77;11.18;;;15.80;33.50;;;;;;5025429;28;20028;-75
2022/03/02 10:42:19;;;;;;;16.30;10.27;;;15.80;32.80;;;;;;5018058;28;20029;-75
2022/03/02 10:45:11;;;;;;;21.10;9.95;;;15.70;33.10;;;;;;5024350;28;20107;-75
2022/03/02 10:47:46;;;;;;;19.58;10.82;;;16.10;32.30;;;;;;5022642;28;20033;-75
2022/03/02 10:50:13;;;;;;;18.40;10.13;;;17.10;31.00;;;;;;5019969;28;20072;-75
2022/03/02 10:52:39;;;;;;;20.58;11.73;;;18.20;29.80;;;;;;5020471;28;20041;-76
2022/03/02 10:55:11;;;;;;;19.67;10.50;;;19.20;28.90;;;;;;5018390;28;20129;-75
2022/03/02 10:57:37;;;;;;;19.63;10.07;;;19.70;27.80;;;;;;5021415;28;20037;-76
2022/03/02 11:00:12;;;;;;;17.27;10.43;;;19.60;28.00;;;;;;5021905;28;20143;-75
2022/03/02 11:02:46;;;;;;;18.80;11.52;;;19.30;28.40;;;;;;5019591;28;20037;-75
2022/03/02 11:05:13;;;;;;;20.00;11.07;;;18.70;29.30;;;;;;5022156;28;20041;-76
2022/03/02 11:07:41;;;;;;;18.45;10.75;;;18.20;29.50;;;;;;5021957;28;20033;-76
2022/03/02 11:10:09;;;;;;;19.10;9.23;;;17.90;29.50;;;;;;5022158;28;20029;-76
2022/03/02 11:12:41;;;;;;;20.05;9.68;;;17.40;30.20;;;;;;5021092;28;20038;-74
2022/03/02 11:15:07;;;;;;;19.13;10.18;;;17.30;30.10;;;;;;5018227;28;20029;-74
2022/03/02 11:17:34;;;;;;;18.52;9.45;;;17.30;30.00;;;;;;5021742;28;20051;-75
2022/03/02 11:20:08;;;;;;;15.48;8.90;;;17.60;29.50;;;;;;5023797;28;20043;-75
2022/03/02 11:22:34;;;;;;;16.70;10.23;;;17.50;29.10;;;;;;5024200;28;20034;-75
2022/03/02 11:25:00;;;;;;;18.23;9.93;;;17.40;29.70;;;;;;5017925;28;20552;-76
2022/03/02 11:27:30;;;;;;;19.95;11.20;;;16.20;31.30;;;;;;5021403;28;20695;-75
2022/03/02 11:30:14;;;;;;;18.58;10.73;;;14.70;34.20;;;;;;5025225;28;20160;-76
2022/03/02 11:32:43;;;;;;;23.23;11.65;;;13.60;36.00;;;;;;5023060;28;20034;-75
2022/03/02 11:35:13;;;;;;;29.10;13.43;;;12.70;38.20;;;;;;5015927;28;20036;-75
2022/03/02 11:37:40;;;;;;;19.33;11.32;;;12.20;38.90;;;;;;5023350;28;20029;-73
2022/03/02 11:40:10;;;;;;;19.88;10.10;;;12.00;39.30;;;;;;5023161;28;20033;-73
2022/03/02 11:42:38;;;;;;;21.25;10.48;;;11.90;39.00;;;;;;5022595;28;20047;-73
2022/03/02 11:45:06;;;;;;;17.88;9.95;;;11.80;39.30;;;;;;5022300;28;20041;-74
2022/03/02 11:47:38;;;;;;;22.00;10.20;;;11.70;40.00;;;;;;5023029;28;20056;-72
2022/03/02 11:50:11;;;;;;;22.00;10.48;;;11.70;40.20;;;;;;5020804;28;20037;-75
2022/03/02 11:52:46;;;;;;;25.25;11.95;;;11.50;39.90;;;;;;5022491;28;20030;-75
2022/03/02 11:55:16;;;;;;;21.23;10.75;;;11.40;40.30;;;;;;5018738;28;20036;-76
2022/03/02 11:57:47;;;;;;;18.13;9.13;;;11.40;41.20;;;;;;5022101;28;20030;-76
2022/03/02 12:00:20;;;;;;;18.83;9.85;;;11.40;39.70;;;;;;5020145;28;20037;-75
2022/03/02 12:02:50;;;;;;;17.90;9.05;;;11.40;40.20;;;;;;5022970;28;20030;-74
2022/03/02 12:05:18;;;;;;;17.92;10.07;;;11.40;38.30;;;;;;5018316;28;20136;-73
2022/03/02 12:07:47;;;;;;;18.92;8.75;;;11.30;38.50;;;;;;5022487;28;20041;-76
2022/03/02 12:10:21;;;;;;;19.05;8.68;;;11.10;38.70;;;;;;5021231;28;20033;-70
2022/03/02 12:12:48;;;;;;;18.67;9.02;;;10.90;38.00;;;;;;5022131;28;20111;-74
2022/03/02 12:15:17;;;;;;;17.20;8.00;;;10.70;37.80;;;;;;5022496;28;20110;-74
2022/03/02 12:17:43;;;;;;;16.70;8.77;;;10.50;38.50;;;;;;5019064;28;20037;-74
2022/03/02 12:20:15;;;;;;;15.60;7.45;;;10.40;39.00;;;;;;5016778;28;20490;-75
2022/03/02 12:22:52;;;;;;;13.73;7.78;;;10.20;38.90;;;;;;5022568;28;20142;-73
2022/03/02 12:25:23;;;;;;;16.13;7.85;;;10.10;37.90;;;;;;5021845;28;20860;-74
2022/03/02 12:27:56;;;;;;;16.95;8.05;;;10.10;38.60;;;;;;5017777;28;20034;-74
2022/03/02 12:30:22;;;;;;;16.80;8.30;;;10.10;39.30;;;;;;5023823;28;20045;-74
2022/03/02 12:32:51;;;;;;;15.98;8.20;;;10.00;39.10;;;;;;5022228;28;20049;-75
2022/03/02 12:35:19;;;;;;;14.05;8.20;;;10.00;39.60;;;;;;5022219;28;20095;-75
2022/03/02 12:37:46;;;;;;;13.57;7.85;;;10.00;39.40;;;;;;5018019;28;20043;-75